Time;durP1;ratioP1;P1;durP2;ratioP2;P2;SDS_P1;SDS_P2;PMS_P1;PMS_P2;Temp;Humidity;BMP_temperature;BMP_pressure;BME280_temperature;BME280_humidity;BME280_pressure;Samples;Min_cycle;Max_cycle;Signal;HPM_P1;HPM_P2
2023/06/03 00:01:11;;;;;;;18.08;5.88;;;;;;;12.50;100.00;100694.09;4927257;29;20075;-74
2023/06/03 00:03:39;;;;;;;26.77;6.93;;;;;;;12.35;100.00;100697.16;4965214;28;20043;-74
2023/06/03 00:06:05;;;;;;;21.25;7.43;;;;;;;12.18;100.00;100697.66;4912731;29;20046;-74
2023/06/03 00:08:31;;;;;;;23.25;7.72;;;;;;;12.15;100.00;100689.91;4928857;29;20441;-74
2023/06/03 00:10:56;;;;;;;24.38;6.50;;;;;;;12.12;100.00;100687.75;4943697;29;20035;-74
2023/06/03 00:13:22;;;;;;;25.23;7.10;;;;;;;12.06;100.00;100687.00;4944322;29;20051;-74
2023/06/03 00:15:47;;;;;;;23.63;6.88;;;;;;;12.05;100.00;100692.84;4928914;29;20038;-74
2023/06/03 00:18:13;;;;;;;19.35;5.78;;;;;;;12.01;100.00;100687.06;4944421;29;20392;-74
2023/06/03 00:20:39;;;;;;;18.30;6.28;;;;;;;12.06;100.00;100680.56;4961235;28;20053;-74
2023/06/03 00:23:05;;;;;;;22.15;7.25;;;;;;;11.90;100.00;100681.94;4937928;29;20056;-75
2023/06/03 00:25:34;;;;;;;21.55;6.72;;;;;;;11.92;100.00;100676.88;4927949;29;20094;-74
2023/06/03 00:28:00;;;;;;;17.77;6.07;;;;;;;11.97;100.00;100674.03;4953898;29;20046;-74
2023/06/03 00:30:26;;;;;;;21.23;6.47;;;;;;;11.89;100.00;100677.47;4959832;28;20051;-74
2023/06/03 00:32:51;;;;;;;16.88;6.75;;;;;;;11.87;100.00;100679.72;4959918;29;20042;-74
2023/06/03 00:35:17;;;;;;;22.15;6.82;;;;;;;11.79;100.00;100672.84;4972411;28;20044;-74
2023/06/03 00:37:42;;;;;;;20.17;7.18;;;;;;;11.67;100.00;100676.03;4940522;29;20036;-74
2023/06/03 00:40:08;;;;;;;17.95;6.35;;;;;;;11.77;100.00;100672.31;4940232;29;20040;-74
2023/06/03 00:42:34;;;;;;;19.85;6.22;;;;;;;11.75;100.00;100674.56;4940830;29;20050;-74
2023/06/03 00:44:59;;;;;;;15.50;5.60;;;;;;;11.80;100.00;100669.75;4940277;29;20043;-75
2023/06/03 00:47:25;;;;;;;22.70;6.68;;;;;;;11.80;100.00;100674.50;4956560;28;20485;-75
2023/06/03 00:49:50;;;;;;;22.92;7.05;;;;;;;11.83;100.00;100674.72;4940493;29;20046;-75
2023/06/03 00:52:16;;;;;;;20.75;6.28;;;;;;;11.78;100.00;100671.19;4956300;28;20050;-75
2023/06/03 00:54:41;;;;;;;21.17;6.35;;;;;;;11.68;100.00;100665.75;4955888;28;20094;-75
2023/06/03 00:57:07;;;;;;;21.10;6.40;;;;;;;11.67;100.00;100667.69;4956222;28;20109;-74
2023/06/03 00:59:32;;;;;;;14.82;5.70;;;;;;;11.71;100.00;100665.16;4956056;28;20043;-75
2023/06/03 01:01:58;;;;;;;14.45;6.20;;;;;;;11.71;100.00;100665.16;4956088;28;20051;-74
2023/06/03 01:04:25;;;;;;;25.00;7.53;;;;;;;11.63;100.00;100658.31;4965407;28;20131;-74
2023/06/03 01:07:12;;;;;;;16.77;6.45;;;;;;;11.63;100.00;100667.47;4955842;28;20042;-75
2023/06/03 01:09:47;;;;;;;15.20;5.60;;;;;;;11.65;100.00;100667.19;4959443;28;20043;-75
2023/06/03 01:12:22;;;;;;;19.75;5.78;;;;;;;11.65;100.00;100660.78;4941006;29;20066;-75
2023/06/03 01:14:57;;;;;;;16.80;5.90;;;;;;;11.61;100.00;100674.44;4955379;28;20568;-75
2023/06/03 01:17:27;;;;;;;17.05;5.68;;;;;;;11.61;100.00;100663.31;4956681;28;20043;-75
2023/06/03 01:19:53;;;;;;;20.80;5.78;;;;;;;11.67;100.00;100664.91;4949503;28;20063;-74
2023/06/03 01:22:20;;;;;;;17.92;5.65;;;;;;;11.67;100.00;100664.91;4958890;28;20441;-75
2023/06/03 01:24:48;;;;;;;18.65;6.50;;;;;;;11.63;100.00;100666.66;4948382;29;20127;-75
2023/06/03 01:27:14;;;;;;;20.80;5.72;;;;;;;11.69;100.00;100671.00;4939482;29;20063;-75
2023/06/03 01:29:41;;;;;;;18.50;6.10;;;;;;;11.67;100.00;100673.25;4972965;28;20069;-75
2023/06/03 01:32:10;;;;;;;14.05;5.32;;;;;;;11.71;100.00;100670.72;4954134;29;20031;-75
2023/06/03 01:34:35;;;;;;;16.90;5.40;;;;;;;11.68;100.00;100666.59;4950996;29;20062;-75
2023/06/03 01:37:01;;;;;;;13.57;5.47;;;;;;;11.67;100.00;100664.91;4969981;28;20036;-75
2023/06/03 01:39:26;;;;;;;15.18;5.78;;;;;;;11.66;100.00;100666.03;4966842;28;20066;-75
2023/06/03 01:41:51;;;;;;;15.23;5.68;;;;;;;11.64;100.00;100668.28;4942526;29;20039;-74
2023/06/03 01:44:17;;;;;;;16.45;5.47;;;;;;;11.67;100.00;100667.69;4955295;29;20066;-75
2023/06/03 01:46:42;;;;;;;12.10;4.78;;;;;;;11.68;100.00;100662.97;4923133;29;20099;-75
2023/06/03 01:49:09;;;;;;;17.48;5.38;;;;;;;11.67;100.00;100664.91;4926692;29;20062;-75
2023/06/03 01:51:35;;;;;;;12.73;5.13;;;;;;;11.65;100.00;100664.41;4974436;28;20043;-75
2023/06/03 01:54:01;;;;;;;15.10;5.45;;;;;;;11.58;100.00;100655.56;4958300;29;20394;-75
2023/06/03 01:56:26;;;;;;;15.27;5.35;;;;;;;11.51;100.00;100660.69;4955645;28;20047;-75
2023/06/03 01:58:52;;;;;;;15.23;5.43;;;;;;;11.46;100.00;100661.56;4955169;28;20051;-75
2023/06/03 02:01:17;;;;;;;15.20;5.78;;;;;;;11.44;100.00;100660.19;4957629;28;20032;-75
2023/06/03 02:03:43;;;;;;;17.23;6.38;;;;;;;11.32;100.00;100661.44;4953360;29;20046;-75
2023/06/03 02:06:08;;;;;;;13.52;5.15;;;;;;;11.33;100.00;100660.31;4942108;29;20555;-75
2023/06/03 02:08:36;;;;;;;20.60;5.80;;;;;;;11.33;100.00;100663.09;4959522;28;20035;-75
2023/06/03 02:11:01;;;;;;;15.07;5.10;;;;;;;11.34;100.00;100658.38;4942063;29;20043;-75
2023/06/03 02:13:27;;;;;;;17.90;6.10;;;;;;;11.21;100.00;100654.34;4971078;28;20047;-75
2023/06/03 02:15:52;;;;;;;13.50;5.15;;;;;;;11.17;100.00;100650.47;4957752;28;20337;-75
2023/06/03 02:18:18;;;;;;;13.43;5.60;;;;;;;11.06;100.00;100641.44;4926456;29;20032;-75
2023/06/03 02:20:43;;;;;;;22.05;7.30;;;;;;;11.01;100.00;100646.22;4967846;28;20046;-75
2023/06/03 02:23:10;;;;;;;24.23;6.80;;;;;;;10.90;100.00;100643.56;4966415;28;20057;-75
2023/06/03 02:25:35;;;;;;;21.13;6.45;;;;;;;10.84;100.00;100650.28;4932578;28;20075;-75
2023/06/03 02:28:02;;;;;;;19.60;5.93;;;;;;;10.91;100.00;100652.72;4956771;28;20106;-75
2023/06/03 02:30:28;;;;;;;19.98;6.32;;;;;;;10.90;100.00;100651.06;4976798;28;20122;-75
2023/06/03 02:32:54;;;;;;;23.55;6.38;;;;;;;10.89;100.00;100654.94;4957876;29;20078;-75
2023/06/03 02:35:19;;;;;;;20.20;6.38;;;;;;;10.83;100.00;100658.91;4971139;28;20046;-75
2023/06/03 02:37:45;;;;;;;18.05;5.90;;;;;;;10.82;100.00;100652.50;4961437;28;20086;-75
2023/06/03 02:40:11;;;;;;;18.33;5.85;;;;;;;10.86;100.00;100656.34;4960673;28;20043;-75
2023/06/03 02:42:37;;;;;;;13.57;5.30;;;;;;;10.88;100.00;100656.91;4973986;28;20043;-75
2023/06/03 02:45:03;;;;;;;20.55;5.97;;;;;;;10.91;100.00;100659.09;4973980;28;20047;-75
2023/06/03 02:47:28;;;;;;;13.73;5.15;;;;;;;10.93;100.00;100653.25;4974025;28;20046;-75
2023/06/03 02:49:55;;;;;;;16.55;6.18;;;;;;;10.92;100.00;100649.66;4961238;28;20472;-75
2023/06/03 02:52:22;;;;;;;11.30;5.57;;;;;;;10.92;100.00;100658.00;4967199;28;20046;-75
2023/06/03 02:54:48;;;;;;;16.33;5.63;;;;;;;10.90;100.00;100662.19;4958907;28;20489;-75
2023/06/03 02:57:14;;;;;;;18.95;6.18;;;;;;;10.89;100.00;100661.34;4952502;28;20136;-75
2023/06/03 02:59:39;;;;;;;21.15;5.63;;;;;;;10.87;100.00;100663.59;4974209;28;20099;-75
2023/06/03 03:02:05;;;;;;;16.85;5.07;;;;;;;10.84;100.00;100663.34;4952199;28;20039;-75
2023/06/03 03:04:33;;;;;;;18.67;6.13;;;;;;;10.87;100.00;100665.53;4978124;28;20035;-75
2023/06/03 03:07:01;;;;;;;16.25;5.93;;;;;;;10.85;100.00;100665.81;4957790;29;20095;-75
2023/06/03 03:09:27;;;;;;;17.60;5.55;;;;;;;10.80;100.00;100663.09;4974961;28;20510;-75
2023/06/03 03:11:52;;;;;;;15.80;6.45;;;;;;;10.78;100.00;100653.38;4976826;28;20039;-75
2023/06/03 03:14:18;;;;;;;15.32;5.68;;;;;;;10.78;100.00;100659.78;4959459;28;20059;-75
2023/06/03 03:16:43;;;;;;;19.20;6.78;;;;;;;10.78;100.00;100648.69;4955524;28;20039;-75
2023/06/03 03:19:09;;;;;;;17.48;5.57;;;;;;;10.79;100.00;100655.88;4957507;29;20039;-75
2023/06/03 03:21:34;;;;;;;12.77;5.65;;;;;;;10.78;100.00;100658.94;4948267;29;20066;-75
2023/06/03 03:24:00;;;;;;;17.10;5.75;;;;;;;10.77;100.00;100655.34;4966070;28;20078;-75
2023/06/03 03:26:26;;;;;;;17.42;5.28;;;;;;;10.77;100.00;100657.28;4948833;28;20093;-75
2023/06/03 03:28:52;;;;;;;14.93;5.55;;;;;;;10.77;100.00;100652.56;4973351;28;20039;-75
2023/06/03 03:31:20;;;;;;;17.60;6.13;;;;;;;10.75;100.00;100649.22;4957460;28;20035;-75
2023/06/03 03:33:48;;;;;;;21.70;6.57;;;;;;;10.72;100.00;100650.66;4925995;29;20039;-75
2023/06/03 03:36:20;;;;;;;18.05;6.35;;;;;;;10.71;100.00;100653.72;4968128;28;20094;-75
2023/06/03 03:38:46;;;;;;;15.82;6.35;;;;;;;10.64;100.00;100656.84;4957077;28;20039;-75
2023/06/03 03:41:11;;;;;;;21.35;6.97;;;;;;;10.61;100.00;100660.19;4941574;29;20044;-75
2023/06/03 03:43:37;;;;;;;21.35;6.88;;;;;;;10.63;100.00;100657.97;4942763;29;20063;-75
2023/06/03 03:46:02;;;;;;;15.93;6.07;;;;;;;10.58;100.00;100654.41;4957417;28;20091;-75
2023/06/03 03:48:30;;;;;;;18.90;6.00;;;;;;;10.58;100.00;100662.72;4957453;28;20119;-75
2023/06/03 03:50:55;;;;;;;15.82;6.70;;;;;;;10.58;100.00;100660.78;4950205;29;20059;-75
2023/06/03 03:53:31;;;;;;;13.13;5.70;;;;;;;10.57;100.00;100655.53;4944428;29;20488;-75
2023/06/03 03:55:57;;;;;;;12.98;5.28;;;;;;;10.57;100.00;100666.63;4957131;29;20039;-75
2023/06/03 03:58:42;;;;;;;15.07;5.60;;;;;;;10.57;100.00;100658.31;4957346;28;20112;-75
2023/06/03 04:01:16;;;;;;;20.83;5.78;;;;;;;10.54;100.00;100653.34;4940746;29;20532;-75
2023/06/03 04:03:49;;;;;;;22.17;6.53;;;;;;;10.51;100.00;100652.78;4959981;28;20035;-75
2023/06/03 04:06:29;;;;;;;15.40;6.47;;;;;;;10.49;100.00;100652.25;4945852;29;20079;-75
2023/06/03 04:08:55;;;;;;;19.88;5.93;;;;;;;10.50;100.00;100644.72;4966683;28;20039;-75
2023/06/03 04:11:26;;;;;;;13.45;5.95;;;;;;;10.48;100.00;100658.91;4954207;28;20031;-75
2023/06/03 04:13:51;;;;;;;13.60;5.47;;;;;;;10.49;100.00;100662.53;4940633;29;20063;-75
2023/06/03 04:16:42;;;;;;;15.77;5.60;;;;;;;10.45;100.00;100653.13;4966032;28;20487;-75
2023/06/03 04:19:13;;;;;;;15.00;5.60;;;;;;;10.45;100.00;100653.13;4944995;28;20036;-75
2023/06/03 04:21:38;;;;;;;16.55;6.10;;;;;;;10.43;100.00;100656.19;4949577;29;20051;-75
2023/06/03 04:24:05;;;;;;;14.60;5.53;;;;;;;10.42;100.00;100651.75;4952173;29;20058;-75
2023/06/03 04:26:30;;;;;;;20.63;6.50;;;;;;;10.40;100.00;100648.44;4940336;29;20039;-75
2023/06/03 04:28:56;;;;;;;13.70;6.13;;;;;;;10.40;100.00;100650.38;4967055;28;20046;-75
2023/06/03 04:31:21;;;;;;;20.52;6.32;;;;;;;10.39;100.00;100652.34;4943924;29;20046;-75
2023/06/03 04:33:47;;;;;;;12.93;6.10;;;;;;;10.35;100.00;100655.97;4931097;29;20043;-75
2023/06/03 04:36:12;;;;;;;20.60;5.93;;;;;;;10.38;100.00;100650.66;4949175;29;20043;-75
2023/06/03 04:38:41;;;;;;;19.17;6.47;;;;;;;10.39;100.00;100654.25;4956737;28;20042;-75
2023/06/03 04:41:06;;;;;;;16.85;6.47;;;;;;;10.41;100.00;100652.03;4948138;29;20054;-75
2023/06/03 04:43:33;;;;;;;17.48;6.78;;;;;;;10.45;100.00;100647.56;4942038;29;20039;-75
2023/06/03 04:46:00;;;;;;;15.43;6.70;;;;;;;10.46;100.00;100644.50;4951479;29;20039;-75
2023/06/03 04:48:26;;;;;;;15.90;6.90;;;;;;;10.47;100.00;100648.94;4959610;29;20043;-75
2023/06/03 04:50:52;;;;;;;20.83;8.32;;;;;;;10.45;100.00;100640.06;4959710;29;20043;-75
2023/06/03 04:53:18;;;;;;;16.92;7.53;;;;;;;10.51;100.00;100647.22;4943290;29;20093;-75
2023/06/03 04:55:44;;;;;;;22.67;9.80;;;;;;;10.55;100.00;100646.66;4943255;29;20036;-76
2023/06/03 04:58:12;;;;;;;16.25;7.75;;;;;;;10.60;100.00;100655.75;4930794;29;20039;-75
2023/06/03 05:00:40;;;;;;;20.88;8.00;;;;;;;10.68;100.00;100655.13;4943292;29;20118;-75
2023/06/03 05:03:08;;;;;;;25.63;10.45;;;;;;;10.72;100.00;100652.59;4944318;28;20063;-75
2023/06/03 05:05:34;;;;;;;19.95;8.02;;;;;;;10.77;100.00;100652.56;4947064;28;20043;-75
2023/06/03 05:07:59;;;;;;;24.25;8.25;;;;;;;10.87;100.00;100651.66;4930504;29;20042;-75
2023/06/03 05:10:25;;;;;;;27.08;11.50;;;;;;;10.91;100.00;100650.75;4939836;29;20044;-76
2023/06/03 05:12:51;;;;;;;29.60;12.98;;;;;;;10.96;100.00;100655.44;4956208;29;20118;-76
2023/06/03 05:15:16;;;;;;;29.50;12.82;;;;;;;11.06;100.00;100646.16;4943148;28;20130;-75
2023/06/03 05:17:42;;;;;;;32.88;12.55;;;;;;;11.16;100.00;100654.41;4941649;29;20047;-76
2023/06/03 05:20:09;;;;;;;27.92;13.23;;;;;;;11.24;100.00;100652.94;4926965;28;20032;-76
2023/06/03 05:22:34;;;;;;;30.40;15.35;;;;;;;11.33;100.00;100656.72;4954791;28;20125;-76
2023/06/03 05:25:00;;;;;;;32.40;14.68;;;;;;;11.38;100.00;100657.47;4967110;28;20043;-75
2023/06/03 05:27:26;;;;;;;34.92;14.98;;;;;;;11.48;100.00;100664.88;4961071;28;20113;-76
2023/06/03 05:29:51;;;;;;;33.55;14.88;;;;;;;11.59;100.00;100668.38;4953089;28;20046;-76
2023/06/03 05:32:17;;;;;;;35.67;18.00;;;;;;;11.63;100.00;100669.44;4956612;29;20116;-76
2023/06/03 05:34:43;;;;;;;29.48;15.13;;;;;;;11.74;100.00;100664.56;4959957;28;20039;-76
2023/06/03 05:37:08;;;;;;;31.92;15.50;;;;;;;11.85;100.00;100663.31;4973955;28;20058;-76
2023/06/03 05:39:35;;;;;;;33.70;16.25;;;;;;;11.93;100.00;100659.06;4977704;28;20042;-76
2023/06/03 05:42:01;;;;;;;39.78;17.70;;;;;;;12.01;100.00;100659.22;4939762;29;20040;-75
2023/06/03 05:44:26;;;;;;;32.63;15.70;;;;;;;12.11;100.00;100658.22;4970966;28;20097;-76
2023/06/03 05:46:51;;;;;;;30.13;15.82;;;;;;;12.25;100.00;100659.13;4977504;28;20042;-76
2023/06/03 05:49:17;;;;;;;31.13;15.90;;;;;;;12.38;100.00;100662.28;4978807;28;20043;-76
2023/06/03 05:51:42;;;;;;;36.25;16.83;;;;;;;12.48;100.00;100667.69;4942775;29;20046;-75
2023/06/03 05:54:08;;;;;;;29.95;16.58;;;;;;;12.60;100.00;100665.28;4971078;28;20039;-75
2023/06/03 05:56:33;;;;;;;28.98;17.17;;;;;;;12.73;100.00;100672.00;4961301;28;20035;-75
2023/06/03 05:58:59;;;;;;;33.75;17.10;;;;;;;12.85;100.00;100671.56;4978853;28;20094;-75
2023/06/03 06:01:24;;;;;;;32.25;16.88;;;;;;;12.95;100.00;100665.78;4959497;28;20051;-76
2023/06/03 06:03:50;;;;;;;37.05;17.70;;;;;;;13.05;100.00;100673.97;4969131;28;20041;-75
2023/06/03 06:06:15;;;;;;;32.15;16.40;;;;;;;13.13;100.00;100672.44;4943603;28;20086;-76
2023/06/03 06:08:42;;;;;;;32.25;16.45;;;;;;;13.21;100.00;100666.16;4977324;28;20077;-76
2023/06/03 06:11:08;;;;;;;35.85;17.15;;;;;;;13.27;100.00;100664.13;4941811;29;20043;-75
2023/06/03 06:13:34;;;;;;;35.35;18.10;;;;;;;13.35;100.00;100669.00;4958299;28;20049;-76
2023/06/03 06:16:03;;;;;;;34.38;15.38;;;;;;;13.40;100.00;100663.31;4966114;28;20034;-76
2023/06/03 06:18:29;;;;;;;34.28;15.70;;;;;;;13.54;100.00;100666.06;4945416;28;20070;-75
2023/06/03 06:20:55;;;;;;;32.25;16.65;;;;;;;13.59;100.00;100669.59;4977161;28;20094;-76
2023/06/03 06:23:21;;;;;;;35.20;18.55;;;;;;;13.63;100.00;100673.44;4937958;29;20055;-75
2023/06/03 06:25:48;;;;;;;34.28;16.88;;;;;;;13.75;100.00;100666.50;4941824;29;20046;-76
2023/06/03 06:28:15;;;;;;;35.78;17.63;;;;;;;13.82;100.00;100675.28;4942091;29;20042;-76
2023/06/03 06:30:40;;;;;;;32.88;17.48;;;;;;;13.93;100.00;100675.88;4955045;28;20039;-75
2023/06/03 06:33:06;;;;;;;35.80;18.05;;;;;;;14.04;100.00;100668.91;4938865;29;20043;-76
2023/06/03 06:35:31;;;;;;;29.33;16.45;;;;;;;14.13;100.00;100669.03;4957608;29;20040;-76
2023/06/03 06:37:57;;;;;;;33.75;18.50;;;;;;;14.22;100.00;100661.53;4942257;29;20036;-76
2023/06/03 06:40:23;;;;;;;34.00;18.08;;;;;;;14.36;100.00;100667.91;4957523;29;20531;-76
2023/06/03 06:42:49;;;;;;;36.10;15.80;;;;;;;14.58;100.00;100666.31;4954720;29;20084;-76
2023/06/03 06:45:14;;;;;;;30.38;16.95;;;;;;;14.73;100.00;100668.72;4957593;29;20047;-76
2023/06/03 06:47:40;;;;;;;32.75;16.95;;;;;;;14.87;100.00;100672.25;4959086;29;20039;-76
2023/06/03 06:50:08;;;;;;;36.83;18.23;;;;;;;15.04;100.00;100674.34;4973870;28;20050;-76
2023/06/03 06:52:34;;;;;;;31.75;16.25;;;;;;;15.23;100.00;100667.69;4960756;28;20099;-76
2023/06/03 06:55:00;;;;;;;35.55;17.67;;;;;;;15.31;100.00;100666.91;4938611;29;20098;-76
2023/06/03 06:57:27;;;;;;;33.22;17.48;;;;;;;15.54;100.00;100670.47;4954481;28;20036;-76
2023/06/03 06:59:53;;;;;;;35.13;18.50;;;;;;;15.62;100.00;100673.28;4954467;28;20048;-76
2023/06/03 07:02:21;;;;;;;32.83;15.98;;;;;;;15.81;100.00;100667.44;4956417;28;20516;-76
2023/06/03 07:04:50;;;;;;;34.67;18.80;;;;;;;15.90;100.00;100673.06;4975668;28;20066;-76
2023/06/03 07:07:16;;;;;;;38.95;18.58;;;;;;;15.96;100.00;100671.75;4975825;28;20043;-75
2023/06/03 07:09:42;;;;;;;34.35;19.15;;;;;;;16.07;100.00;100677.88;4942072;29;20048;-76
2023/06/03 07:12:08;;;;;;;38.15;19.35;;;;;;;16.19;100.00;100680.06;4943310;29;20039;-76
2023/06/03 07:14:34;;;;;;;32.00;17.70;;;;;;;16.29;100.00;100685.31;4966285;28;20130;-76
2023/06/03 07:16:59;;;;;;;39.65;18.95;;;;;;;16.37;100.00;100692.09;4974711;28;20054;-76
2023/06/03 07:19:35;;;;;;;36.97;19.77;;;;;;;16.48;100.00;100693.44;4977274;28;20043;-75
2023/06/03 07:22:01;;;;;;;32.78;18.42;;;;;;;16.64;100.00;100685.34;4976041;28;20055;-76
2023/06/03 07:24:27;;;;;;;29.70;18.48;;;;;;;16.75;100.00;100683.84;4952018;29;20472;-76
2023/06/03 07:26:53;;;;;;;32.50;18.88;;;;;;;16.81;100.00;100685.34;4957625;28;20036;-76
2023/06/03 07:29:18;;;;;;;37.47;19.52;;;;;;;16.99;100.00;100680.53;4949212;29;20036;-76
2023/06/03 07:31:46;;;;;;;35.92;19.65;;;;;;;17.22;100.00;100683.13;4957565;28;20035;-76
2023/06/03 07:34:11;;;;;;;37.30;19.30;;;;;;;17.38;100.00;100676.66;4961997;28;20177;-76
2023/06/03 07:36:37;;;;;;;32.42;18.55;;;;;;;17.51;100.00;100680.38;4943592;29;20039;-76
2023/06/03 07:39:08;;;;;;;37.83;20.48;;;;;;;17.63;100.00;100680.50;4965315;28;20062;-76
2023/06/03 07:41:43;;;;;;;35.92;20.02;;;;;;;17.79;100.00;100677.13;4960342;29;20373;-77
2023/06/03 07:44:13;;;;;;;30.80;19.38;;;;;;;17.92;100.00;100678.88;4950884;29;20075;-77
2023/06/03 07:46:43;;;;;;;30.70;18.00;;;;;;;18.02;100.00;100678.47;4957240;28;20046;-76
2023/06/03 07:49:10;;;;;;;31.55;18.27;;;;;;;18.14;100.00;100674.13;4957505;28;20137;-76
2023/06/03 07:51:38;;;;;;;32.95;19.40;;;;;;;18.27;100.00;100678.63;4971285;28;20039;-76
2023/06/03 07:54:04;;;;;;;28.08;19.00;;;;;;;18.37;100.00;100675.44;4967339;28;20479;-76
2023/06/03 07:56:29;;;;;;;33.08;18.35;;;;;;;18.53;100.00;100670.00;4956241;29;20040;-76
2023/06/03 07:58:55;;;;;;;30.77;18.52;;;;;;;18.68;100.00;100680.63;4952914;29;20035;-76
2023/06/03 08:01:23;;;;;;;31.70;18.50;;;;;;;18.83;100.00;100679.19;4956650;29;20091;-76
2023/06/03 08:03:50;;;;;;;28.52;18.33;;;;;;;18.96;100.00;100686.50;4953143;29;20108;-76
2023/06/03 08:06:16;;;;;;;30.27;16.70;;;;;;;19.09;100.00;100680.94;4972764;28;20036;-76
2023/06/03 08:08:41;;;;;;;31.70;18.08;;;;;;;19.15;100.00;100673.91;4960757;29;20050;-76
2023/06/03 08:11:08;;;;;;;27.90;17.27;;;;;;;19.28;100.00;100683.19;4954239;29;20753;-76
2023/06/03 08:13:33;;;;;;;33.97;17.80;;;;;;;19.34;100.00;100682.63;4956937;28;20051;-76
2023/06/03 08:15:59;;;;;;;30.02;16.92;;;;;;;19.50;100.00;100679.97;4975666;28;20027;-76
2023/06/03 08:18:37;;;;;;;31.75;16.92;;;;;;;19.57;100.00;100670.91;4942296;28;20080;-75
2023/06/03 08:21:03;;;;;;;29.65;16.55;;;;;;;19.58;100.00;100667.72;4941038;29;20094;-75
2023/06/03 08:23:28;;;;;;;24.13;14.18;;;;;;;19.74;100.00;100665.06;4957461;28;20039;-75
2023/06/03 08:25:58;;;;;;;26.55;16.15;;;;;;;19.72;100.00;100661.78;4961182;28;20039;-75
2023/06/03 08:28:24;;;;;;;28.20;14.88;;;;;;;19.90;100.00;100665.19;4961932;28;20035;-78
2023/06/03 08:30:51;;;;;;;30.80;15.35;;;;;;;20.06;100.00;100657.66;4943862;29;20118;-76
2023/06/03 08:33:16;;;;;;;25.67;15.13;;;;;;;20.18;100.00;100664.44;4940680;28;20040;-77
2023/06/03 08:35:43;;;;;;;29.40;15.80;;;;;;;20.19;100.00;100652.81;4955976;29;20035;-77
2023/06/03 08:38:08;;;;;;;25.50;15.20;;;;;;;20.22;97.98;100666.19;4955161;28;20039;-76
2023/06/03 08:40:34;;;;;;;23.55;14.07;;;;;;;20.29;96.13;100662.78;4943452;29;20039;-77
2023/06/03 08:43:02;;;;;;;31.08;16.00;;;;;;;20.26;96.65;100661.50;4960203;28;20122;-77
2023/06/03 08:45:31;;;;;;;27.17;14.93;;;;;;;20.39;95.10;100664.25;4978784;28;20113;-77
2023/06/03 08:48:34;;;;;;;28.08;14.48;;;;;;;20.52;96.15;100660.22;4947872;28;20074;-77
2023/06/03 08:51:07;;;;;;;27.17;13.98;;;;;;;20.62;96.79;100653.31;4956553;28;20042;-76
2023/06/03 08:53:35;;;;;;;;;;;;;;;20.63;95.06;100650.13;4955107;28;20046;-76
2023/06/03 08:56:02;;;;;;;29.25;13.00;;;;;;;20.81;93.39;100649.78;4943302;28;19911;-76
2023/06/03 08:58:32;;;;;;;29.27;12.70;;;;;;;20.97;93.58;100647.84;4952008;28;20506;-77
2023/06/03 09:01:00;;;;;;;22.80;13.35;;;;;;;21.05;93.37;100660.97;4943107;28;20125;-77
2023/06/03 09:03:26;;;;;;;22.77;12.35;;;;;;;21.14;90.23;100655.97;4964781;28;20550;-77
2023/06/03 09:05:52;;;;;;;24.65;13.15;;;;;;;21.18;88.06;100654.06;4965894;28;20050;-75
2023/06/03 09:08:18;;;;;;;24.23;13.27;;;;;;;21.25;87.29;100658.25;4974692;28;20043;-75
2023/06/03 09:10:47;;;;;;;22.65;12.95;;;;;;;21.39;88.77;100659.47;4946551;28;20071;-75
2023/06/03 09:13:16;;;;;;;26.13;12.95;;;;;;;21.48;89.38;100653.66;4943803;29;20035;-75
2023/06/03 09:15:42;;;;;;;23.02;11.55;;;;;;;21.68;87.81;100653.75;4946791;28;20031;-73
2023/06/03 09:18:07;;;;;;;23.50;11.98;;;;;;;21.74;87.33;100635.31;4930433;28;20046;-74
2023/06/03 09:20:35;;;;;;;26.05;12.32;;;;;;;21.78;83.36;100642.69;4929721;28;20042;-74
2023/06/03 09:23:01;;;;;;;19.45;11.07;;;;;;;21.92;86.87;100650.69;4947590;28;20441;-76
2023/06/03 09:25:26;;;;;;;22.33;11.27;;;;;;;21.98;80.13;100648.38;4971796;28;20082;-76
2023/06/03 09:27:52;;;;;;;24.65;12.10;;;;;;;22.18;78.74;100652.13;4951394;28;20508;-76
2023/06/03 09:30:18;;;;;;;23.70;11.27;;;;;;;22.23;78.50;100649.00;4972223;28;20102;-76
2023/06/03 09:32:44;;;;;;;25.02;11.90;;;;;;;22.24;77.36;100654.28;4943448;29;20044;-76
2023/06/03 09:35:10;;;;;;;23.88;11.63;;;;;;;22.29;80.75;100648.34;4939691;29;20044;-76
2023/06/03 09:37:35;;;;;;;22.27;11.93;;;;;;;22.38;78.49;100638.81;4955574;28;20485;-76
2023/06/03 09:40:02;;;;;;;24.63;11.52;;;;;;;22.49;78.15;100651.19;4954808;29;20064;-76
2023/06/03 09:42:44;;;;;;;21.42;10.45;;;;;;;22.65;78.01;100649.09;4965567;28;20461;-76
2023/06/03 09:45:26;;;;;;;22.45;11.23;;;;;;;22.70;74.22;100637.47;4969781;28;20032;-75
2023/06/03 09:47:52;;;;;;;19.55;11.05;;;;;;;22.62;73.03;100651.84;4974231;28;20114;-74
2023/06/03 09:50:17;;;;;;;24.40;11.25;;;;;;;22.65;75.28;100656.75;4958416;29;20047;-74
2023/06/03 09:52:43;;;;;;;21.85;11.45;;;;;;;22.56;72.92;100656.16;4957986;29;20043;-74
2023/06/03 09:55:09;;;;;;;22.42;11.23;;;;;;;22.61;75.38;100653.03;4945989;29;20055;-75
2023/06/03 09:57:36;;;;;;;24.38;11.68;;;;;;;22.79;74.62;100653.41;4955123;29;20544;-76
2023/06/03 10:00:11;;;;;;;22.25;10.00;;;;;;;22.89;74.05;100645.13;4946192;29;20093;-76
2023/06/03 10:02:42;;;;;;;21.48;10.85;;;;;;;22.92;70.39;100658.53;4970488;28;20444;-76
2023/06/03 10:05:27;;;;;;;19.80;10.23;;;;;;;22.89;68.89;100649.97;4948901;29;20035;-75
2023/06/03 10:07:52;;;;;;;22.02;9.68;;;;;;;23.15;66.80;100644.44;4970330;28;20421;-71
2023/06/03 10:10:18;;;;;;;22.17;9.65;;;;;;;23.03;68.30;100636.13;4974389;28;20047;-73
2023/06/03 10:12:45;;;;;;;19.50;10.25;;;;;;;23.16;65.68;100633.94;4974227;28;20040;-73
2023/06/03 10:15:11;;;;;;;19.70;9.88;;;;;;;23.32;66.80;100631.78;4958155;28;20042;-73
2023/06/03 10:17:44;;;;;;;19.63;10.50;;;;;;;23.41;66.60;100632.34;4968322;28;20044;-73
2023/06/03 10:20:10;;;;;;;19.58;8.95;;;;;;;23.54;69.32;100629.31;4950578;28;20071;-74
2023/06/03 10:22:35;;;;;;;19.42;9.77;;;;;;;23.63;69.48;100627.06;4941386;29;20060;-73
2023/06/03 10:25:01;;;;;;;19.67;9.43;;;;;;;23.68;67.77;100637.22;4926159;29;20039;-73
2023/06/03 10:27:27;;;;;;;19.85;9.55;;;;;;;23.71;64.62;100631.66;4968911;28;20516;-73
2023/06/03 10:29:53;;;;;;;19.85;9.93;;;;;;;23.67;64.05;100627.09;4962296;28;20400;-73
2023/06/03 10:32:20;;;;;;;19.48;9.25;;;;;;;23.86;64.08;100610.81;4954890;28;20066;-73
2023/06/03 10:34:47;;;;;;;23.08;9.70;;;;;;;23.92;64.44;100616.16;4948315;29;20035;-73
2023/06/03 10:37:14;;;;;;;15.38;8.68;;;;;;;23.96;65.39;100611.34;4959781;28;20047;-73
2023/06/03 10:39:41;;;;;;;21.50;9.00;;;;;;;23.94;62.22;100605.28;4958349;29;20119;-73
2023/06/03 10:42:06;;;;;;;20.20;10.70;;;;;;;23.72;60.66;100615.47;4942898;29;20047;-73
2023/06/03 10:44:32;;;;;;;15.75;10.05;;;;;;;23.82;61.04;100606.28;4974806;28;20044;-73
2023/06/03 10:46:59;;;;;;;18.77;8.57;;;;;;;23.95;61.24;100607.72;4958770;29;20094;-73
2023/06/03 10:49:27;;;;;;;17.75;9.10;;;;;;;23.96;61.05;100598.00;4958861;29;20525;-73
2023/06/03 10:52:03;;;;;;;22.35;9.45;;;;;;;24.06;61.31;100600.16;4949634;28;20544;-73
2023/06/03 10:54:56;;;;;;;17.08;8.68;;;;;;;24.35;61.45;100602.56;4959372;29;20045;-74
2023/06/03 10:57:23;;;;;;;18.58;8.63;;;;;;;24.39;61.02;100604.25;4954420;29;20059;-73
2023/06/03 10:59:48;;;;;;;16.33;8.40;;;;;;;24.57;61.87;100603.69;4955593;29;20041;-74
2023/06/03 11:02:14;;;;;;;17.27;8.38;;;;;;;24.65;61.42;100597.69;4958750;28;20043;-73
2023/06/03 11:04:40;;;;;;;16.73;8.50;;;;;;;24.60;57.72;100605.75;4953278;29;20484;-73
2023/06/03 11:07:06;;;;;;;14.07;8.07;;;;;;;24.64;56.93;100609.47;4973281;28;20071;-73